createdAt,value
2022-11-22T00:01:23.274Z,99202.28
2022-11-22T00:03:51.480Z,99210.09
2022-11-22T00:06:19.846Z,99223.13
2022-11-22T00:08:48.467Z,99219.63
2022-11-22T00:11:18.321Z,99231.75
2022-11-22T00:13:46.804Z,99222.22
2022-11-22T00:16:15.216Z,99225.69
2022-11-22T00:18:43.700Z,99216.97
2022-11-22T00:21:12.075Z,99230.91
2022-11-22T00:23:40.445Z,99229.16
2022-11-22T00:26:12.263Z,99229.16
2022-11-22T00:28:42.115Z,99203.91
2022-11-22T00:31:10.528Z,99243.00
2022-11-22T00:33:38.850Z,99235.22
2022-11-22T00:36:07.326Z,99235.22
2022-11-22T00:38:35.940Z,99236.94
2022-11-22T00:41:04.263Z,99209.13
2022-11-22T00:43:32.929Z,99248.25
2022-11-22T00:46:02.787Z,99247.34
2022-11-22T00:48:31.213Z,99234.34
2022-11-22T00:50:59.871Z,99184.00
2022-11-22T00:53:28.224Z,99190.06
2022-11-22T00:55:56.702Z,99242.13
2022-11-22T00:58:24.990Z,99244.75
2022-11-22T01:00:56.451Z,99224.75
2022-11-22T01:03:27.214Z,99248.22
2022-11-22T01:05:55.863Z,99234.34
2022-11-22T01:08:24.684Z,99175.31
2022-11-22T01:10:58.301Z,99230.81
2022-11-22T01:13:27.880Z,99213.47
2022-11-22T01:16:01.027Z,99214.34
2022-11-22T01:18:31.085Z,99236.88
2022-11-22T01:20:59.566Z,99243.84
2022-11-22T01:23:28.357Z,99234.28
2022-11-22T01:25:56.754Z,99240.34
2022-11-22T01:28:25.544Z,99210.84
2022-11-22T01:30:54.843Z,99237.72
2022-11-22T01:33:23.351Z,99228.91
2022-11-22T01:35:54.256Z,99227.25
2022-11-22T01:38:22.587Z,99239.38
2022-11-22T01:40:51.063Z,99182.03
2022-11-22T01:43:21.492Z,99202.88
2022-11-22T01:45:53.835Z,99222.84
2022-11-22T01:48:33.442Z,99241.94
2022-11-22T01:51:08.252Z,99235.84
2022-11-22T01:53:39.951Z,99246.22
2022-11-22T01:56:14.005Z,99211.47
2022-11-22T01:58:45.272Z,99217.56
2022-11-22T02:01:13.684Z,99247.88
2022-11-22T02:03:46.329Z,99248.81
2022-11-22T02:06:16.724Z,99253.91
2022-11-22T02:08:55.024Z,99243.47
2022-11-22T02:11:29.598Z,99227.09
2022-11-22T02:14:01.189Z,99250.53
2022-11-22T02:16:29.754Z,99259.13
2022-11-22T02:18:58.042Z,99227.84
2022-11-22T02:21:28.439Z,99241.75
2022-11-22T02:24:05.023Z,99225.03
2022-11-22T02:26:34.772Z,99252.03
2022-11-22T02:29:07.699Z,99259.88
2022-11-22T02:31:43.464Z,99265.09
2022-11-22T02:34:12.782Z,99237.19
2022-11-22T02:36:46.600Z,99277.22
2022-11-22T02:39:19.169Z,99279.03
2022-11-22T02:41:50.103Z,99286.78
2022-11-22T02:44:20.349Z,99288.50
2022-11-22T02:46:51.166Z,99278.78
2022-11-22T02:49:20.468Z,99221.38
2022-11-22T02:51:49.039Z,99287.47
2022-11-22T02:54:17.890Z,99297.84
2022-11-22T02:56:46.366Z,99273.47
2022-11-22T02:59:16.011Z,99278.66
2022-11-22T03:01:46.074Z,99298.66
2022-11-22T03:04:24.872Z,99303.03
2022-11-22T03:06:56.259Z,99300.50
2022-11-22T03:09:25.316Z,99305.63
2022-11-22T03:11:54.858Z,99300.38
2022-11-22T03:14:24.671Z,99263.00
2022-11-22T03:16:53.129Z,99307.31
2022-11-22T03:19:21.499Z,99302.13
2022-11-22T03:21:50.857Z,99298.63
2022-11-22T03:24:20.269Z,99301.25
2022-11-22T03:26:50.521Z,99274.09
2022-11-22T03:29:19.388Z,99278.53
2022-11-22T03:31:49.042Z,99313.22
2022-11-22T03:34:17.980Z,99307.06
2022-11-22T03:36:46.483Z,99298.47
2022-11-22T03:39:14.851Z,99294.09
2022-11-22T03:41:43.231Z,99243.69
2022-11-22T03:44:11.578Z,99281.00
2022-11-22T03:46:40.088Z,99305.28
2022-11-22T03:49:09.704Z,99302.69
2022-11-22T03:51:38.188Z,99309.66
2022-11-22T03:54:06.760Z,99312.09
2022-11-22T03:56:35.076Z,99319.00
2022-11-22T03:59:03.336Z,99288.50
2022-11-22T04:01:31.749Z,99333.66
2022-11-22T04:04:00.293Z,99331.06
2022-11-22T04:06:30.159Z,99303.28
2022-11-22T04:08:58.873Z,99329.28
2022-11-22T04:11:27.224Z,99331.00
2022-11-22T04:14:13.261Z,99303.19
2022-11-22T04:16:41.507Z,99311.75
2022-11-22T04:19:09.949Z,99308.31
2022-11-22T04:21:38.864Z,99343.88
2022-11-22T04:24:26.769Z,99339.50
2022-11-22T04:26:55.714Z,99298.63
2022-11-22T04:29:24.753Z,99254.28
2022-11-22T04:32:10.973Z,99335.13
2022-11-22T04:34:39.420Z,99307.06
2022-11-22T04:37:09.442Z,99353.16
2022-11-22T04:39:37.826Z,99352.38
2022-11-22T04:42:24.228Z,99335.81
2022-11-22T04:44:52.607Z,99348.63
2022-11-22T04:47:38.687Z,99353.94
2022-11-22T04:50:30.553Z,99326.00
2022-11-22T04:52:59.311Z,99345.16
2022-11-22T04:55:27.697Z,99359.25
2022-11-22T04:57:59.611Z,99373.19
2022-11-22T05:00:30.688Z,99329.72
2022-11-22T05:02:59.708Z,99343.50
2022-11-22T05:05:28.896Z,99329.59
2022-11-22T05:08:00.109Z,99360.31
2022-11-22T05:10:28.678Z,99339.38
2022-11-22T05:12:57.290Z,99369.88
2022-11-22T05:15:25.688Z,99322.72
2022-11-22T05:17:53.977Z,99373.22
2022-11-22T05:20:22.407Z,99363.69
2022-11-22T05:23:08.166Z,99364.38
2022-11-22T05:25:38.101Z,99350.44
2022-11-22T05:28:06.723Z,99362.84
2022-11-22T05:30:35.107Z,99365.59
2022-11-22T05:33:03.866Z,99364.78
2022-11-22T05:35:32.538Z,99330.81
2022-11-22T05:38:01.163Z,99369.34
2022-11-22T05:40:29.512Z,99369.41
2022-11-22T05:43:00.391Z,99359.84
2022-11-22T05:45:28.783Z,99367.72
2022-11-22T05:47:57.501Z,99353.69
2022-11-22T05:50:26.256Z,99324.97
2022-11-22T05:53:01.116Z,99358.13
2022-11-22T05:55:29.504Z,99353.53
2022-11-22T05:58:01.176Z,99350.13
2022-11-22T06:00:30.284Z,99343.13
2022-11-22T06:03:02.547Z,99364.84
2022-11-22T06:05:31.470Z,99318.03
2022-11-22T06:08:01.495Z,99341.38
2022-11-22T06:10:29.871Z,99351.09
2022-11-22T06:12:59.641Z,99309.31
2022-11-22T06:15:27.965Z,99335.38
2022-11-22T06:17:56.442Z,99371.13
2022-11-22T06:20:24.697Z,99363.41
2022-11-22T06:22:53.172Z,99327.81
2022-11-22T06:25:21.839Z,99356.53
2022-11-22T06:27:50.075Z,99315.72
2022-11-22T06:30:20.163Z,99354.00
2022-11-22T06:32:48.536Z,99354.88
2022-11-22T06:35:17.040Z,99324.50
2022-11-22T06:37:45.550Z,99354.88
2022-11-22T06:40:15.618Z,99356.53
2022-11-22T06:42:44.218Z,99351.41
2022-11-22T06:45:13.111Z,99333.09
2022-11-22T06:47:42.824Z,99373.91
2022-11-22T06:50:11.482Z,99344.34
2022-11-22T06:52:39.844Z,99389.69
2022-11-22T06:55:34.599Z,99382.06
2022-11-22T06:57:57.376Z,99382.97
2022-11-22T07:00:25.658Z,99386.50
2022-11-22T07:02:55.491Z,99391.75
2022-11-22T07:05:26.046Z,99389.00
2022-11-22T07:07:58.961Z,99391.56
2022-11-22T07:10:31.275Z,99370.84
2022-11-22T07:12:59.613Z,99387.22
2022-11-22T07:15:27.910Z,99390.69
2022-11-22T07:17:57.720Z,99376.81
2022-11-22T07:20:26.248Z,99392.56
2022-11-22T07:22:54.562Z,99391.75
2022-11-22T07:25:23.402Z,99367.25
2022-11-22T07:27:53.680Z,99390.00
2022-11-22T07:30:22.204Z,99376.16
2022-11-22T07:32:50.668Z,99378.88
2022-11-22T07:35:20.483Z,99374.56
2022-11-22T07:37:48.860Z,99385.72
2022-11-22T07:40:18.081Z,99375.34
2022-11-22T07:42:46.381Z,99375.28
2022-11-22T07:45:15.487Z,99340.31
2022-11-22T07:47:43.957Z,99388.22
2022-11-22T07:50:12.898Z,99385.69
2022-11-22T07:52:42.584Z,99378.66
2022-11-22T07:55:14.326Z,99387.47
2022-11-22T07:57:43.340Z,99382.19
2022-11-22T08:00:14.556Z,99392.59
2022-11-22T08:02:42.877Z,99351.84
2022-11-22T08:05:11.707Z,99370.81
2022-11-22T08:07:40.164Z,99386.63
2022-11-22T08:10:11.329Z,99383.97
2022-11-22T08:12:39.733Z,99392.69
2022-11-22T08:15:09.741Z,99373.72
2022-11-22T08:17:38.533Z,99349.44
2022-11-22T08:20:10.112Z,99397.22
2022-11-22T08:22:40.844Z,99394.63
2022-11-22T08:25:13.514Z,99398.09
2022-11-22T08:27:42.224Z,99407.66
2022-11-22T08:30:11.925Z,99394.69
2022-11-22T08:32:40.354Z,99402.59
2022-11-22T08:35:09.883Z,99403.44
2022-11-22T08:37:38.133Z,99401.66
2022-11-22T08:40:08.593Z,99402.59
2022-11-22T08:42:38.225Z,99390.38
2022-11-22T08:45:08.105Z,99419.88
2022-11-22T08:47:36.635Z,99417.34
2022-11-22T08:50:06.157Z,99368.69
2022-11-22T08:52:36.107Z,99411.31
2022-11-22T08:55:04.497Z,99404.38
2022-11-22T08:57:32.916Z,99413.84
2022-11-22T09:00:02.793Z,99425.91
2022-11-22T09:02:31.139Z,99424.25
2022-11-22T09:04:59.748Z,99408.59
2022-11-22T09:10:18.899Z,99420.94
2022-11-22T09:12:47.900Z,99427.03
2022-11-22T09:15:18.019Z,99405.34
2022-11-22T09:17:46.642Z,99415.84
2022-11-22T09:20:17.855Z,99395.81
2022-11-22T09:22:46.213Z,99437.50
2022-11-22T09:25:14.556Z,99434.94
2022-11-22T09:27:43.109Z,99392.25
2022-11-22T09:30:13.064Z,99427.97
2022-11-22T09:32:44.990Z,99415.84
2022-11-22T09:35:17.336Z,99438.44
2022-11-22T09:37:45.877Z,99430.63
2022-11-22T09:40:15.877Z,99396.75
2022-11-22T09:43:03.504Z,99419.31
2022-11-22T09:46:00.662Z,99420.19
2022-11-22T09:49:04.956Z,99415.78
2022-11-22T09:51:40.844Z,99419.28
2022-11-22T09:54:14.893Z,99401.06
2022-11-22T09:56:45.108Z,99384.59
2022-11-22T09:59:21.540Z,99429.75
2022-11-22T10:01:55.210Z,99414.97
2022-11-22T10:04:30.870Z,99426.25
2022-11-22T10:07:03.130Z,99418.44
2022-11-22T10:09:40.728Z,99422.00
2022-11-22T10:12:17.292Z,99417.63
2022-11-22T10:14:53.751Z,99408.06
2022-11-22T10:17:46.711Z,99397.59
2022-11-22T10:20:20.004Z,99397.63
2022-11-22T10:22:50.361Z,99396.81
2022-11-22T10:25:22.303Z,99404.66
2022-11-22T10:28:00.676Z,99397.69
2022-11-22T10:30:37.830Z,99402.91
2022-11-22T10:33:17.039Z,99408.13
2022-11-22T10:36:10.335Z,99402.06
2022-11-22T10:39:00.955Z,99414.22
2022-11-22T10:41:44.933Z,99412.47
2022-11-22T10:44:29.347Z,99407.25
2022-11-22T10:47:07.563Z,99408.16
2022-11-22T10:49:53.774Z,99401.19
2022-11-22T10:52:35.304Z,99400.31
2022-11-22T10:55:22.268Z,99399.44
2022-11-22T10:58:03.828Z,99378.59
2022-11-22T11:00:36.855Z,99389.00
2022-11-22T11:03:18.015Z,99393.38
2022-11-22T11:06:22.738Z,99382.94
2022-11-22T11:11:38.351Z,99389.03
2022-11-22T11:14:26.749Z,99380.31
2022-11-22T11:16:55.825Z,99364.69
2022-11-22T11:19:27.983Z,99381.22
2022-11-22T11:22:03.417Z,99365.56
2022-11-22T11:24:33.369Z,99386.41
2022-11-22T11:27:02.449Z,99380.31
2022-11-22T11:29:41.693Z,99352.53
2022-11-22T11:32:13.783Z,99368.19
2022-11-22T11:34:50.274Z,99360.34
2022-11-22T11:37:26.493Z,99365.50
2022-11-22T11:39:56.178Z,99343.72
2022-11-22T11:42:30.997Z,99366.28
2022-11-22T11:45:29.112Z,99371.47
2022-11-22T11:47:57.811Z,99348.84
2022-11-22T11:50:30.009Z,99357.59
2022-11-22T11:53:06.207Z,99334.16
2022-11-22T11:55:38.336Z,99361.06
2022-11-22T11:58:20.803Z,99367.09
2022-11-22T12:00:49.163Z,99368.88
2022-11-22T12:03:20.766Z,99353.28
2022-11-22T12:05:49.292Z,99359.31
2022-11-22T12:08:32.496Z,99361.97
2022-11-22T12:11:08.989Z,99345.47
2022-11-22T12:14:12.344Z,99335.88
2022-11-22T12:16:37.103Z,99322.03
2022-11-22T12:22:42.601Z,99355.81
2022-11-22T12:25:38.575Z,99351.50
2022-11-22T12:28:19.884Z,99330.66
2022-11-22T12:30:54.750Z,99325.38
2022-11-22T12:33:31.168Z,99341.72
2022-11-22T12:36:00.119Z,99338.22
2022-11-22T12:38:34.194Z,99319.03
2022-11-22T12:41:07.190Z,99341.66
2022-11-22T12:43:45.234Z,99339.88
2022-11-22T12:46:26.047Z,99330.28
2022-11-22T12:48:23.770Z,99360.22
2022-11-22T12:49:18.395Z,99279.03
2022-11-22T12:51:51.912Z,99337.84
2022-11-22T12:54:25.714Z,99309.16
2022-11-22T12:56:57.679Z,99325.69
2022-11-22T12:59:36.157Z,99322.16
2022-11-22T13:02:17.919Z,99322.09
2022-11-22T13:04:54.598Z,99312.50
2022-11-22T13:07:34.279Z,99290.03
2022-11-22T13:10:08.416Z,99312.59
2022-11-22T13:12:41.168Z,99297.06
2022-11-22T13:15:17.910Z,99326.75
2022-11-22T13:17:46.883Z,99311.97
2022-11-22T13:20:19.689Z,99304.22
2022-11-22T13:23:04.050Z,99328.53
2022-11-22T13:25:47.410Z,99331.06
2022-11-22T13:28:20.007Z,99318.91
2022-11-22T13:31:18.776Z,99326.88
2022-11-22T13:33:57.780Z,99327.69
2022-11-22T13:36:39.262Z,99332.91
2022-11-22T13:39:14.609Z,99325.13
2022-11-22T13:41:53.194Z,99331.13
2022-11-22T13:44:39.290Z,99333.91
2022-11-22T13:47:53.939Z,99335.59
2022-11-22T13:51:00.154Z,99341.72
2022-11-22T13:53:32.786Z,99342.53
2022-11-22T13:56:49.060Z,99331.22
2022-11-22T13:59:19.535Z,99333.81
2022-11-22T14:02:22.306Z,99326.84
2022-11-22T14:04:56.729Z,99322.44
2022-11-22T14:07:39.498Z,99310.34
2022-11-22T14:10:29.377Z,99305.28
2022-11-22T14:13:31.728Z,99311.41
2022-11-22T14:16:16.252Z,99310.50
2022-11-22T14:18:59.656Z,99325.25
2022-11-22T14:21:50.755Z,99298.31
2022-11-22T14:24:37.230Z,99328.78
2022-11-22T14:27:23.590Z,99339.28
2022-11-22T14:30:14.237Z,99329.72
2022-11-22T14:33:04.285Z,99343.56
2022-11-22T14:35:35.838Z,99338.34
2022-11-22T14:38:32.092Z,99327.84
2022-11-22T14:41:43.878Z,99341.81
2022-11-22T14:44:18.304Z,99327.13
2022-11-22T14:46:54.455Z,99347.06
2022-11-22T14:49:39.876Z,99343.47
2022-11-22T14:52:20.875Z,99331.41
2022-11-22T14:54:55.657Z,99340.09
2022-11-22T14:57:29.320Z,99347.03
2022-11-22T15:00:18.041Z,99353.22
2022-11-22T15:03:42.743Z,99347.09
2022-11-22T15:09:16.808Z,99351.44
2022-11-22T15:10:04.138Z,99346.22
2022-11-22T15:12:50.540Z,99346.25
2022-11-22T15:57:32.102Z,99368.94
2022-11-22T16:00:00.920Z,99379.34
2022-11-22T16:02:32.272Z,99378.44
2022-11-22T16:06:08.217Z,99376.72
2022-11-22T16:07:53.855Z,99374.13
2022-11-22T16:10:24.949Z,99379.34
2022-11-22T16:12:55.156Z,99378.50
2022-11-22T16:15:29.222Z,99386.31
2022-11-22T16:18:09.847Z,99360.31
2022-11-22T16:20:40.127Z,99389.84
2022-11-22T16:23:19.898Z,99388.09
2022-11-22T16:25:50.906Z,99393.22
2022-11-22T16:28:36.485Z,99395.03
2022-11-22T16:31:17.445Z,99384.59
2022-11-22T16:33:46.389Z,99392.41
2022-11-22T16:36:17.492Z,99386.31
2022-11-22T16:38:46.882Z,99401.09
2022-11-22T16:41:23.674Z,99403.72
2022-11-22T16:43:56.019Z,99396.78
2022-11-22T16:46:24.809Z,99393.28
2022-11-22T16:48:53.356Z,99400.25
2022-11-22T16:51:24.920Z,99390.66
2022-11-22T16:53:54.236Z,99401.09
2022-11-22T16:56:29.596Z,99409.81
2022-11-22T16:58:59.823Z,99406.34
2022-11-22T17:01:34.248Z,99382.03
2022-11-22T17:04:03.489Z,99421.97
2022-11-22T17:06:33.157Z,99418.50
2022-11-22T17:09:02.120Z,99424.56
2022-11-22T17:11:33.002Z,99421.97
2022-11-22T17:14:02.887Z,99422.88
2022-11-22T17:16:32.387Z,99421.09
2022-11-22T17:19:00.630Z,99429.78
2022-11-22T17:21:37.318Z,99436.75
2022-11-22T17:24:21.391Z,99426.31
2022-11-22T17:26:49.660Z,99422.81
2022-11-22T17:29:43.317Z,99423.69
2022-11-22T17:32:08.180Z,99431.50
2022-11-22T17:34:36.464Z,99435.00
2022-11-22T17:37:04.760Z,99443.69
2022-11-22T17:39:33.286Z,99444.56
2022-11-22T17:42:01.999Z,99405.44
2022-11-22T17:44:31.686Z,99436.72
2022-11-22T17:47:00.130Z,99435.84
2022-11-22T17:49:28.713Z,99441.06
2022-11-22T17:51:57.434Z,99439.34
2022-11-22T17:54:25.766Z,99433.19
2022-11-22T17:56:54.126Z,99416.72
2022-11-22T17:59:22.386Z,99406.25
2022-11-22T18:01:52.645Z,99437.53
2022-11-22T18:04:20.997Z,99439.22
2022-11-22T18:06:49.509Z,99416.66
2022-11-22T18:09:17.781Z,99443.63
2022-11-22T18:11:45.994Z,99441.88
2022-11-22T18:14:14.920Z,99446.25
2022-11-22T18:16:43.401Z,99440.16
2022-11-22T18:19:13.065Z,99443.59
2022-11-22T18:21:41.379Z,99430.63
2022-11-22T18:24:10.110Z,99451.41
2022-11-22T18:26:40.015Z,99435.84
2022-11-22T18:31:58.991Z,99446.28
2022-11-22T18:34:29.172Z,99456.66
2022-11-22T18:37:03.021Z,99452.31
2022-11-22T18:39:34.771Z,99448.81
2022-11-22T18:42:03.920Z,99430.63
2022-11-22T18:44:32.304Z,99452.31
2022-11-22T18:47:00.879Z,99445.34
2022-11-22T18:49:31.166Z,99454.91
2022-11-22T18:51:59.975Z,99458.34
2022-11-22T18:54:28.491Z,99456.53
2022-11-22T18:56:57.139Z,99457.41
2022-11-22T18:59:25.839Z,99458.22
2022-11-22T19:01:54.257Z,99466.00
2022-11-22T19:04:22.747Z,99464.28
2022-11-22T19:06:52.455Z,99451.22
2022-11-22T19:09:20.751Z,99465.97
2022-11-22T19:11:49.083Z,99472.06
2022-11-22T19:14:17.554Z,99458.13
2022-11-22T19:16:46.155Z,99476.34
2022-11-22T19:19:15.375Z,99455.56
2022-11-22T19:21:43.876Z,99459.03
2022-11-22T19:24:14.537Z,99472.88
2022-11-22T19:26:43.031Z,99473.81
2022-11-22T19:29:11.548Z,99474.69
2022-11-22T19:31:40.135Z,99474.69
2022-11-22T19:34:09.636Z,99470.38
2022-11-22T19:36:40.645Z,99466.91
2022-11-22T19:39:15.047Z,99472.13
2022-11-22T19:41:45.191Z,99468.63
2022-11-22T19:44:13.728Z,99471.22
2022-11-22T19:46:43.814Z,99470.31
2022-11-22T19:49:12.522Z,99469.47
2022-11-22T19:51:40.930Z,99469.47
2022-11-22T19:54:09.879Z,99458.19
2022-11-22T19:56:39.941Z,99462.56
2022-11-22T19:59:12.881Z,99445.25
2022-11-22T20:01:41.261Z,99473.06
2022-11-22T20:04:13.411Z,99471.41
2022-11-22T20:06:45.904Z,99474.06
2022-11-22T20:09:17.159Z,99477.50
2022-11-22T20:11:46.975Z,99481.09
2022-11-22T20:14:15.341Z,99475.88
2022-11-22T20:16:43.815Z,99495.88
2022-11-22T20:19:12.786Z,99502.81
2022-11-22T20:21:41.596Z,99513.25
2022-11-22T20:24:10.754Z,99505.41
2022-11-22T20:26:39.272Z,99514.06
2022-11-22T20:29:13.714Z,99519.28
2022-11-22T20:31:42.162Z,99508.84
2022-11-22T20:34:11.065Z,99514.00
2022-11-22T20:36:39.485Z,99484.44
2022-11-22T20:39:10.705Z,99520.16
2022-11-22T20:41:40.656Z,99502.75
2022-11-22T20:44:14.180Z,99494.94
2022-11-22T20:46:44.472Z,99524.47
2022-11-22T20:49:12.990Z,99484.50
2022-11-22T20:51:42.732Z,99524.38
2022-11-22T20:54:11.899Z,99487.09
2022-11-22T20:56:40.205Z,99509.75
2022-11-22T20:59:10.170Z,99522.72
2022-11-22T21:01:38.724Z,99534.03
2022-11-22T21:04:07.511Z,99523.63
2022-11-22T21:06:35.885Z,99539.34
2022-11-22T21:09:04.515Z,99527.13
2022-11-22T21:11:32.907Z,99542.75
2022-11-22T21:14:01.368Z,99542.75
2022-11-22T21:16:31.920Z,99504.53
2022-11-22T21:19:02.874Z,99523.63
2022-11-22T21:21:32.698Z,99545.34
2022-11-22T21:24:03.386Z,99537.50
2022-11-22T21:26:32.233Z,99546.19
2022-11-22T21:29:03.222Z,99547.13
2022-11-22T21:31:33.014Z,99528.88
2022-11-22T21:34:01.871Z,99558.44
2022-11-22T21:36:30.275Z,99534.97
2022-11-22T21:38:58.583Z,99561.91
2022-11-22T21:41:42.297Z,99568.91
2022-11-22T21:44:11.746Z,99573.28
2022-11-22T21:46:41.628Z,99575.88
2022-11-22T21:49:10.303Z,99575.88
2022-11-22T21:51:38.966Z,99564.56
2022-11-22T21:54:08.039Z,99582.88
2022-11-22T21:56:36.661Z,99558.53
2022-11-22T21:59:05.006Z,99588.09
2022-11-22T22:01:33.959Z,99572.44
2022-11-22T22:04:03.820Z,99581.94
2022-11-22T22:06:32.368Z,99585.41
2022-11-22T22:09:01.128Z,99581.94
2022-11-22T22:11:29.358Z,99554.13
2022-11-22T22:13:59.050Z,99595.03
2022-11-22T22:16:27.544Z,99589.78
2022-11-22T22:18:55.823Z,99600.28
2022-11-22T22:21:25.732Z,99599.41
2022-11-22T22:23:54.473Z,99571.56
2022-11-22T22:26:22.745Z,99597.66
2022-11-22T22:28:51.166Z,99606.31
2022-11-22T22:31:22.778Z,99579.34
2022-11-22T22:33:54.134Z,99582.84
2022-11-22T22:36:23.026Z,99589.81
2022-11-22T22:38:52.968Z,99598.50
2022-11-22T22:41:21.408Z,99611.59
2022-11-22T22:43:50.451Z,99612.50
2022-11-22T22:46:21.499Z,99619.44
2022-11-22T22:48:51.414Z,99587.25
2022-11-22T22:51:21.840Z,99600.31
2022-11-22T22:53:51.965Z,99625.53
2022-11-22T22:56:22.654Z,99587.25
2022-11-22T22:58:55.776Z,99633.34
2022-11-22T23:01:26.987Z,99615.09
2022-11-22T23:03:58.341Z,99616.81
2022-11-22T23:06:29.284Z,99607.25
2022-11-22T23:08:59.659Z,99650.78
2022-11-22T23:11:44.909Z,99642.06
2022-11-22T23:14:14.691Z,99636.00
2022-11-22T23:16:43.250Z,99649.06
2022-11-22T23:19:12.173Z,99662.09
2022-11-22T23:21:40.796Z,99656.00
2022-11-22T23:24:11.291Z,99619.47
2022-11-22T23:26:40.139Z,99665.59
2022-11-22T23:29:08.586Z,99662.06
2022-11-22T23:31:37.319Z,99662.09
2022-11-22T23:34:05.610Z,99652.56
2022-11-22T23:36:40.232Z,99665.56
2022-11-22T23:39:10.470Z,99664.72
2022-11-22T23:41:38.778Z,99667.34
2022-11-22T23:44:07.447Z,99670.78
2022-11-22T23:46:35.724Z,99666.44
2022-11-22T23:49:05.860Z,99674.28
2022-11-22T23:51:36.156Z,99673.41
2022-11-22T23:54:06.872Z,99642.09
2022-11-22T23:56:37.350Z,99672.53
2022-11-22T23:59:06.432Z,99648.19
